RORVIK/RYUM current weather conditions

sailwx.info

Wind from 140 at 20 knots gusting 33

Air temperature 1.0° C
Visibility: greater than 4.3 NM
Dewpoint -2.0° C
Present weather: Light snow showers.

Last reported at 2019-Dec-10 20:50 UTC.
Time now 2019-Dec-11 04:23 UTC

Location: N 64°50' E 011°08'.
View on Google Maps.

See reports from other nearby stations

  
Tides and Currents Weather Stations Pressure Air Temp Water Temp Dewpoint Dewpoint Depression Visibility Wind Speed Wind Dir Waves Ship Positions
date/time (UTC)wind fromknots sea level pressurealtimeterstation pressurevisibilityair tempwater tempwave heightnotes
2019-Dec-10 20:50 140 20 gusting 33 4.3 1.0 Light snow showers.
2019-Dec-10 20:20 130 18 gusting 27 5.4 1.0 Light snow showers.
2019-Dec-10 19:50 130 19 gusting 31 5.4 1.0 Light snow showers.
2019-Dec-10 19:20 120 19 gusting 32 5.4 1.0
2019-Dec-10 18:50 120 20 gusting 33 5.4 1.0
2019-Dec-10 17:50 130 17 gusting 32 1.0 Showers in the vicinity.
2019-Dec-10 17:20 120 14 gusting 27 5.4 1.0
2019-Dec-10 16:50 120 17 5.4 1.0
2019-Dec-10 16:20 130 13 5.4 1.0
2019-Dec-10 12:50 110 12 5.4-0.0
2019-Dec-10 12:20 130 12 5.4-0.0
2019-Dec-10 11:50 140 13 5.4-1.0
2019-Dec-10 11:20 140 13 5.4-1.0
2019-Dec-10 10:50 150 11 5.4-1.0
2019-Dec-10 10:20 130 8 5.4-0.0
2019-Dec-10 09:50 160 7 5.4-0.0
2019-Dec-10 09:20 150 6 5.4-0.0
2019-Dec-10 08:50 140 6 5.4-0.0 Showers in the vicinity.
2019-Dec-10 08:20 160 6 5.4-0.0 Showers in the vicinity.
2019-Dec-10 07:50 190 6 5.4-0.0 Showers in the vicinity.
2019-Dec-10 07:20 190 9 4.3-0.0 Snow showers.
2019-Dec-10 06:20 030 1 5.4-4.0
2019-Dec-10 05:50 5.4-4.0
2019-Dec-10 05:20 5.4-3.0
2019-Dec-09 20:50 250 4 5.4-0.0 Showers in the vicinity.
2019-Dec-09 20:20 290 4 3.8-0.0 Light snow showers.
2019-Dec-09 19:50 330 9 0.8-0.0 Snow showers.
2019-Dec-09 19:20 340 12 0.6-0.0 Snow showers.
2019-Dec-09 18:50 010 9 3.8-0.0 Light snow showers.
2019-Dec-09 18:20 280 6 5.4-0.0 Showers in the vicinity.
2019-Dec-09 17:50 280 6 5.4 1.0 Light snow showers.
2019-Dec-09 17:20 270 8 5.4-0.0 Showers in the vicinity.
2019-Dec-09 16:50 290 9 3.8-0.0 Light snow showers.
2019-Dec-09 16:20 300 9 5.4 1.0 Light snow showers. Small hail/snow pellets.
2019-Dec-09 13:50 340 9 5.4 1.0 Showers in the vicinity.
2019-Dec-09 13:20 010 6 5.4 1.0 Showers in the vicinity.
2019-Dec-09 12:50 020 11 5.4 1.0 Showers in the vicinity.
2019-Dec-09 12:20 010 14 5.4 1.0 Showers in the vicinity.
2019-Dec-09 11:50 350 9 0.3-0.0 Snow showers. Small hail/snow pellets.
2019-Dec-09 11:20 350 11 5.4 1.0 Light snow showers.
2019-Dec-09 10:50 010 9 5.4 1.0 Showers in the vicinity.
2019-Dec-09 10:20 360 6 5.4 1.0 Showers in the vicinity.
2019-Dec-09 09:50 010 9 5.4 1.0 Showers in the vicinity.
2019-Dec-09 09:20 340 2 5.4-3.0 Showers in the vicinity.
2019-Dec-09 08:50 5.4-2.0 Showers in the vicinity.
2019-Dec-09 08:20 010 4 5.4-2.0 Showers in the vicinity.
2019-Dec-09 07:50 350 5 5.4-1.0 Showers in the vicinity.
2019-Dec-09 07:20 300 6 1.1-1.0 Snow showers.
2019-Dec-09 06:50 030 1 5.4-4.0
2019-Dec-09 06:20 030 2 5.4-4.0
2019-Dec-09 05:50 5.4-4.0
2019-Dec-09 05:20 5.4-3.0